• Join FlightAware (Why Join?)
  • Login
  • US Flag 
04:20PM EDT


 

Airport Tracker/Info


-or-


 

Live Flight TrackerFlight Track Log ✈ SWA1586 ✈ 03-May-2013 ✈ KDEN - KSTL

Flight Track Log - Related Links

Times and Time Zones

All times are in EDT time to prevent confusion due to time zone crossing. See the SWA1586 flight status page for this flight to view local times or setup timezone preferences in your user account.

Time Position Orientation Groundspeed Altitude Reporting Facility
EDT Latitude Longitude Course Direction KTS MPH feet Rate Location/Type
12:21AM 39.8667 -104.5667 90° East 187 215 7,800  Level Denver TRACON
12:22AM 39.8500 -104.5000 108° East 242 278 10,500 2,760 Climbing Denver TRACON
12:23AM 39.8344 -104.3850 100° East 296 341 13,600 3,060 Climbing Denver Center
12:24AM 39.8189 -104.2567 99° East 363 418 17,000 3,360 Climbing Denver Center
12:25AM 39.8161 -104.1228 92° East 374 430 20,500 3,360 Climbing Denver Center
12:26AM 39.7500 -103.8077 90° East  Level FlightAware Approximate
12:26AM 39.8142 -103.9689 91° East 397 457 23,900  Level Denver Center
12:27AM 39.8100 -103.8247 92° East 406 467 26,500 2,340 Climbing Denver Center
12:28AM 39.8078 -103.6678 91° East 427 491 28,700 2,100 Climbing Denver Center
12:29AM 39.8039 -103.5003 92° East 454 522 30,800 1,860 Climbing Denver Center
12:30AM 39.8011 -103.3261 91° East 473 544 32,600 1,860 Climbing Denver Center
12:31AM 39.7972 -103.1483 92° East 485 558 34,700 1,860 Climbing Denver Center
12:32AM 39.7914 -103.0000 93° East 488 562 36,500 2,220 Climbing Denver Center
12:33AM 39.7858 -102.7953 92° East 482 555 39,300 2,160 Climbing Denver Center
12:34AM 39.7819 -102.6242 92° East 455 524 40,900 780 Climbing Denver Center
12:35AM 39.7769 -102.4667 92° East 455 524 41,000  Climbing Denver Center
12:36AM 39.7722 -102.2811 92° East 461 531 41,000  Level Denver Center
12:37AM 39.7639 -102.1192 94° East 467 537 41,000  Level Denver Center
12:38AM 39.7578 -101.9572 93° East 470 541 41,000  Level Denver Center
12:39AM 39.7511 -101.7747 93° East 457 526 41,000  Level Denver Center
12:40AM 39.7450 -101.6169 93° East 457 526 41,000  Level Denver Center
12:41AM 39.7375 -101.4342 93° East 456 525 41,000  Level Denver Center
12:42AM 39.7325 -101.2783 92° East 454 522 41,000  Level Denver Center
12:43AM 39.7242 -101.1200 94° East 459 528 41,000  Level Denver Center
12:44AM 39.7158 -100.9408 93° East 447 514 41,000  Level Denver Center
12:45AM 39.7097 -100.7886 93° East 444 511 41,000  Level Denver Center
12:46AM 39.7025 -100.6369 93° East 442 509 41,000  Level Denver Center
12:47AM 39.6939 -100.4592 94° East 444 511 41,000  Level Denver Center
12:48AM 39.6853 -100.3083 94° East 441 507 41,000  Level Denver Center
12:49AM 39.6772 -100.1331 93° East 439 505 41,000  Level Denver Center
12:50AM 39.6703 -100.0053 94° East 444 511 41,000  Level Denver Center
12:51AM 39.6614 -99.8386 94° East 444 511 41,000  Level Denver Center
12:52AM 39.6519 -99.6781 94° East 445 512 41,000  Level Denver Center
12:53AM 39.6417 -99.4825 94° East 452 520 41,000  Level Denver Center
12:54AM 39.6314 -99.3222 95° East 449 517 41,000  Level Denver Center
12:55AM 39.6219 -99.1650 94° East 442 509 41,000  Level Denver Center
12:56AM 39.6128 -99.0053 94° East 444 511 41,000  Level Denver Center
12:57AM 39.6031 -98.8464 94° East 444 511 41,000  Level Denver Center
12:58AM 39.5931 -98.6878 95° East 444 511 41,000  Level Denver Center
12:59AM 39.5819 -98.5275 95° East 447 514 41,000  Level Denver Center
01:00AM 39.5714 -98.3683 95° East 445 512 41,000  Level Denver Center
01:02AM 39.5492 -98.0533 95° East 441 507 41,000  Level Minneapolis Center
01:03AM 39.5433 -97.9767 96° East 441 507 41,000  Level Kansas City Center
01:04AM 39.5319 -97.7992 95° East 437 503 41,000  Level Kansas City Center
01:05AM 39.5214 -97.6414 95° East 438 504 41,000  Level Kansas City Center
01:06AM 39.5086 -97.4858 96° East 437 503 41,000  Level Kansas City Center
01:07AM 39.4956 -97.3258 96° East 437 503 41,000  Level Kansas City Center
01:09AM 39.4728 -97.0261 96° East 439 505 41,000  Level Kansas City Center
01:10AM 39.4597 -96.8756 96° East 439 505 41,000  Level Kansas City Center
01:11AM 39.4453 -96.6981 96° East 442 509 41,000  Level Kansas City Center
01:12AM 39.4331 -96.5475 96° East 441 507 41,000  Level Kansas City Center
01:13AM 39.4211 -96.4042 96° East 439 505 41,000  Level Kansas City Center
01:14AM 39.4078 -96.2475 96° East 438 504 41,000  Level Kansas City Center
01:15AM 39.3917 -96.0742 97° East 437 503 41,000  Level Kansas City Center
01:16AM 39.3786 -95.9258 96° East 434 499 41,000  Level Kansas City Center
01:17AM 39.3667 -95.7767 96° East 438 504 41,000  Level Kansas City Center
01:18AM 39.3506 -95.6044 97° East 431 496 41,000  Level Kansas City Center
01:19AM 39.3367 -95.4542 97° East 428 493 41,000  Level Kansas City Center
01:20AM 39.3208 -95.2906 97° East 427 491 41,000  Level Kansas City Center
01:21AM 39.3069 -95.1375 97° East 430 495 41,000  Level Kansas City Center
01:22AM 39.2928 -94.9886 97° East 428 493 41,000  Level Kansas City Center
01:23AM 39.2775 -94.8433 98° East 426 490 41,000  Level Kansas City Center
01:24AM 39.2642 -94.6981 97° East 425 489 41,000  Level Kansas City Center
01:25AM 39.2500 -94.5500 97° East 431 496 41,000  Level Kansas City Center
01:26AM 39.2317 -94.3772 98° East 436 502 41,000  Level Kansas City Center
01:27AM 39.2161 -94.2278 98° East 437 503 41,000  Level Kansas City Center
01:28AM 39.2006 -94.0783 98° East 439 505 41,000  Level Kansas City Center
01:29AM 39.1811 -93.9033 98° East 442 509 41,000  Level Kansas City Center
01:30AM 39.1661 -93.7542 97° East 441 507 41,000  Level Kansas City Center
01:31AM 39.1486 -93.6042 99° East 442 509 41,000  Level Kansas City Center
01:32AM 39.1328 -93.4544 98° East 442 509 41,000  Level Kansas City Center
01:33AM 39.1156 -93.3011 98° East 443 510 41,000  Level Kansas City Center
01:34AM 39.0986 -93.1458 98° East 445 512 41,000  Level Kansas City Center
01:35AM 39.0811 -92.9933 98° East 442 509 41,000 -180 Level Kansas City Center
01:36AM 39.0594 -92.8119 99° East 436 502 40,700 -1,200 Descending Kansas City Center
01:37AM 39.0450 -92.6825 98° East 431 496 38,600 -2,340 Descending Kansas City Center
01:38AM 39.0272 -92.5336 99° East 425 489 36,100 -2,460 Descending Kansas City Center
01:39AM 39.0114 -92.3972 98° East 403 464 33,700 -2,340 Descending Kansas City Center
01:40AM 38.9961 -92.2742 99° East 368 423 31,500 -2,340 Descending Kansas City Center
01:41AM 38.9825 -92.1575 98° East 344 396 29,100 -1,680 Descending Kansas City Center
01:42AM 38.9678 -92.0433 99° East 328 377 28,200 -1,200 Descending Kansas City Center
01:43AM 38.9533 -91.9317 99° East 322 371 26,700 -1,800 Descending Kansas City Center
01:44AM 38.9400 -91.8217 99° East 317 365 24,600 -2,100 Descending Kansas City Center
01:45AM 38.9258 -91.7133 100° East 312 359 22,500 -2,160 Descending Kansas City Center
01:46AM 38.9122 -91.6019 99° East 314 361 20,300 -2,160 Descending Kansas City Center
01:47AM 38.8978 -91.4925 100° East 313 360 18,200 -2,100 Descending Kansas City Center
01:48AM 38.8842 -91.3844 99° East 310 357 16,100 -1,140 Descending Kansas City Center
01:49AM 38.8706 -91.2817 100° East 299 344 16,000 -420 Descending Kansas City Center
01:50AM 38.8575 -91.1808 99° East 291 335 15,300 -1,380 Descending Kansas City Center
01:51AM 38.8444 -91.0789 99° East 291 335 13,300 -1,920 Descending Kansas City Center
01:52AM 38.8278 -90.9847 103° East 278 320 11,500 -1,680 Descending Kansas City Center
01:53AM 38.7931 -90.9028 119° Southeast 265 305 10,000 -780 Descending Kansas City Center
01:54AM 38.7653 -90.8253 115° Southeast 249 287 10,000 -600 Level Kansas City Center
01:55AM 38.7369 -90.7514 116° Southeast 236 272 8,900 -1,320 Descending Kansas City Center
01:56AM 38.7089 -90.6761 116° Southeast 236 272 7,400 -1,800 Descending Kansas City Center
01:57AM 38.6769 -90.5897 115° Southeast 228 262 5,300 -1,200 Descending Kansas City Center
01:58AM 38.6658 -90.5100 100° East 235 270 5,000 -660 Descending Kansas City Center
01:59AM 38.6611 -90.4306 94° East 231 266 4,000 -1,020 Descending Kansas City Center
02:00AM 38.6450 -90.3547 105° East 230 265 3,000 -540 Descending Kansas City Center
02:01AM 38.6281 -90.2878 108° East 214 246 3,000 -60 Level Kansas City Center
02:02AM 38.6122 -90.2219 107° East 203 234 2,900 -420 Descending Kansas City Center
02:03AM 38.6567 -90.1878 31° Northeast 221 254 2,200 -360 Descending Kansas City Center
02:04AM 38.6881 -90.2364 310° West 190 219 2,200 -300 Level Kansas City Center
02:05AM 38.7131 -90.2878 302° West 180 207 1,600 -660 Descending Kansas City Center
02:06AM 38.7322 -90.3253 303° West 147 169 900 -540 Descending Kansas City Center
02:07AM 38.7536 -90.3714 301° West 139 160 600 -300 Descending Kansas City Center